Time;durP1;ratioP1;P1;durP2;ratioP2;P2;SDS_P1;SDS_P2;PMS_P1;PMS_P2;Temp;Humidity;BMP_temperature;BMP_pressure;BME280_temperature;BME280_humidity;BME280_pressure;Samples;Min_cycle;Max_cycle;Signal;HPM_P1;HPM_P2
2022/05/08 00:00:30;;;;;;;30.63;4.50;;;7.80;99.90;;;;;;5007665;28;20136;-81
2022/05/08 00:02:57;;;;;;;20.13;4.20;;;7.80;99.90;;;;;;5007132;28;20124;-81
2022/05/08 00:05:23;;;;;;;31.38;5.78;;;7.70;99.90;;;;;;5006393;28;20579;-81
2022/05/08 00:07:49;;;;;;;21.92;5.45;;;7.70;99.90;;;;;;5020911;28;20029;-81
2022/05/08 00:10:15;;;;;;;19.13;4.93;;;7.70;99.90;;;;;;4990060;28;20736;-81
2022/05/08 00:12:40;;;;;;;19.27;5.35;;;7.70;99.90;;;;;;5010436;28;20138;-81
2022/05/08 00:15:06;;;;;;;19.45;5.00;;;7.60;99.90;;;;;;5003764;28;20048;-81
2022/05/08 00:17:34;;;;;;;23.85;5.38;;;7.60;99.90;;;;;;5028861;28;20434;-81
2022/05/08 00:20:02;;;;;;;24.40;5.55;;;7.50;99.90;;;;;;4974688;28;20033;-81
2022/05/08 00:22:27;;;;;;;17.48;5.35;;;7.50;99.90;;;;;;5028855;28;20037;-81
2022/05/08 00:24:53;;;;;;;20.58;5.07;;;7.50;99.90;;;;;;5011799;28;20124;-81
2022/05/08 00:27:19;;;;;;;22.30;5.45;;;7.40;99.90;;;;;;5043157;28;20037;-81
2022/05/08 00:29:45;;;;;;;16.70;4.97;;;7.50;99.90;;;;;;5024788;28;20395;-81
2022/05/08 00:32:11;;;;;;;20.13;5.25;;;7.40;99.90;;;;;;5028404;28;20028;-81
2022/05/08 00:34:36;;;;;;;21.55;5.30;;;7.30;99.90;;;;;;5012743;28;20129;-81
2022/05/08 00:37:03;;;;;;;21.90;4.97;;;7.30;99.90;;;;;;5010966;28;20517;-81
2022/05/08 00:39:29;;;;;;;20.10;5.22;;;7.30;99.90;;;;;;5027723;28;20033;-81
2022/05/08 00:41:54;;;;;;;19.13;5.10;;;7.30;99.90;;;;;;5043070;28;20531;-81
2022/05/08 00:44:20;;;;;;;26.40;6.63;;;7.20;99.90;;;;;;5028262;28;20056;-81
2022/05/08 00:46:48;;;;;;;28.00;5.55;;;7.20;99.90;;;;;;5029144;28;20514;-81
2022/05/08 00:49:14;;;;;;;26.35;5.45;;;7.20;99.90;;;;;;5029754;28;20037;-81
2022/05/08 00:51:40;;;;;;;20.98;5.57;;;7.10;99.90;;;;;;5012277;28;20048;-81
2022/05/08 00:54:07;;;;;;;19.00;5.43;;;7.10;99.90;;;;;;5029437;28;20037;-81
2022/05/08 00:56:33;;;;;;;19.60;5.93;;;7.10;99.90;;;;;;5025578;28;20049;-81
2022/05/08 00:58:59;;;;;;;16.83;5.22;;;7.30;99.90;;;;;;5029049;28;20042;-81
2022/05/08 01:01:25;;;;;;;21.45;5.80;;;7.00;99.90;;;;;;5009299;28;20659;-81
2022/05/08 01:03:50;;;;;;;24.55;5.60;;;7.00;99.90;;;;;;5021864;28;20118;-81
2022/05/08 01:06:18;;;;;;;17.45;5.47;;;7.00;99.90;;;;;;5024686;28;20036;-81
2022/05/08 01:08:45;;;;;;;20.10;5.18;;;7.00;99.90;;;;;;5007514;28;20071;-81
2022/05/08 01:11:12;;;;;;;20.77;6.13;;;6.90;99.90;;;;;;5009366;28;20037;-80
2022/05/08 01:13:40;;;;;;;18.55;5.40;;;6.90;99.90;;;;;;5011283;28;20037;-81
2022/05/08 01:16:08;;;;;;;19.35;4.93;;;6.80;99.90;;;;;;5025987;28;20049;-81
2022/05/08 01:18:34;;;;;;;21.75;5.80;;;6.80;99.90;;;;;;5016938;28;20579;-81
2022/05/08 01:21:00;;;;;;;20.45;5.32;;;6.80;99.90;;;;;;5011277;28;20044;-81
2022/05/08 01:23:25;;;;;;;24.60;5.65;;;6.70;99.90;;;;;;5011476;28;20038;-81
2022/05/08 01:25:52;;;;;;;20.40;5.63;;;6.80;99.90;;;;;;5021237;28;20038;-80
2022/05/08 01:28:19;;;;;;;17.02;5.20;;;6.70;99.90;;;;;;5024480;28;20075;-81
2022/05/08 01:30:47;;;;;;;19.48;5.68;;;7.20;99.90;;;;;;5007174;28;20502;-81
2022/05/08 01:33:14;;;;;;;20.27;5.18;;;6.60;99.90;;;;;;5023985;28;20044;-81
2022/05/08 01:35:42;;;;;;;21.70;5.13;;;7.00;99.90;;;;;;5021123;28;20045;-81
2022/05/08 01:38:09;;;;;;;15.63;5.68;;;6.60;99.90;;;;;;5028147;28;21231;-81
2022/05/08 01:40:35;;;;;;;17.08;6.00;;;6.50;99.90;;;;;;5028750;28;20052;-81
2022/05/08 01:43:01;;;;;;;17.02;6.00;;;6.80;99.90;;;;;;5026952;28;20502;-81
2022/05/08 01:45:27;;;;;;;21.27;5.80;;;6.50;99.90;;;;;;5028469;28;22015;-81
2022/05/08 01:50:38;;;;;;;24.08;6.05;;;6.40;99.90;;;;;;5027322;28;20044;-81
2022/05/08 01:53:05;;;;;;;21.75;5.60;;;6.40;99.90;;;;;;5010320;28;20040;-81
2022/05/08 01:55:31;;;;;;;19.98;5.78;;;6.40;99.90;;;;;;5011048;28;20033;-81
2022/05/08 01:57:57;;;;;;;20.80;5.88;;;6.50;99.90;;;;;;5010516;28;20171;-81
2022/05/08 02:00:23;;;;;;;14.98;5.25;;;6.40;99.90;;;;;;5042249;28;20105;-81
2022/05/08 02:02:50;;;;;;;19.80;5.38;;;6.40;99.90;;;;;;5025743;28;20029;-80
2022/05/08 02:05:17;;;;;;;21.75;6.25;;;6.40;99.90;;;;;;5021955;28;20067;-81
2022/05/08 02:07:44;;;;;;;15.80;5.75;;;6.40;99.90;;;;;;5025699;28;20052;-81
2022/05/08 02:10:10;;;;;;;20.80;5.70;;;6.20;99.90;;;;;;5009543;28;20039;-81
2022/05/08 02:12:35;;;;;;;16.50;4.97;;;6.20;99.90;;;;;;5025320;28;20033;-80
2022/05/08 02:15:01;;;;;;;16.42;5.28;;;6.10;99.90;;;;;;5009913;28;20120;-81
2022/05/08 02:17:27;;;;;;;17.98;5.90;;;6.00;99.90;;;;;;5027503;28;20487;-81
2022/05/08 02:19:53;;;;;;;15.05;5.40;;;5.90;99.90;;;;;;5024104;28;20033;-80
2022/05/08 02:22:19;;;;;;;16.50;5.57;;;5.80;99.90;;;;;;5027168;28;20552;-81
2022/05/08 02:24:44;;;;;;;18.80;5.25;;;5.80;99.90;;;;;;5014739;28;20059;-81
2022/05/08 02:27:10;;;;;;;18.58;5.57;;;5.70;99.90;;;;;;4992325;28;20510;-80
2022/05/08 02:29:35;;;;;;;17.27;6.15;;;5.70;99.90;;;;;;5008315;28;20355;-81
2022/05/08 02:32:01;;;;;;;18.58;5.25;;;5.60;99.90;;;;;;4990856;28;20036;-81
2022/05/08 02:34:27;;;;;;;20.02;5.55;;;5.60;99.90;;;;;;5027827;28;20551;-81
2022/05/08 02:36:52;;;;;;;22.52;5.90;;;6.30;99.90;;;;;;5007303;28;20044;-80
2022/05/08 02:39:18;;;;;;;18.50;5.85;;;5.60;99.90;;;;;;4995665;28;20051;-80
2022/05/08 02:41:45;;;;;;;18.98;5.80;;;5.70;99.90;;;;;;5010284;28;20037;-80
2022/05/08 02:44:11;;;;;;;23.77;6.63;;;5.50;99.90;;;;;;5024601;28;20049;-81
2022/05/08 02:46:37;;;;;;;19.50;5.97;;;5.40;99.90;;;;;;5040236;28;20055;-81
2022/05/08 02:49:02;;;;;;;19.65;6.55;;;5.40;99.90;;;;;;5018874;28;20064;-80
2022/05/08 02:51:28;;;;;;;20.58;5.68;;;5.40;99.90;;;;;;5012940;28;20574;-80
2022/05/08 02:53:54;;;;;;;18.15;5.90;;;5.70;99.90;;;;;;5027571;28;20041;-80
2022/05/08 02:59:05;;;;;;;23.55;5.80;;;5.60;99.90;;;;;;4996360;28;20549;-80
2022/05/08 03:01:31;;;;;;;20.52;5.35;;;5.30;99.90;;;;;;5025277;28;20156;-80
2022/05/08 03:03:57;;;;;;;15.40;5.65;;;5.20;99.90;;;;;;5012954;28;20041;-81
2022/05/08 03:06:22;;;;;;;21.02;6.63;;;5.20;99.90;;;;;;5028315;28;20041;-79
2022/05/08 03:08:51;;;;;;;16.38;6.20;;;5.20;99.90;;;;;;5003674;28;20059;-80
2022/05/08 03:11:26;;;;;;;17.33;5.97;;;5.10;99.90;;;;;;5023155;28;20043;-80
2022/05/08 03:13:56;;;;;;;22.88;6.45;;;5.00;99.90;;;;;;5026507;28;20606;-80
2022/05/08 03:16:22;;;;;;;24.65;6.10;;;4.90;99.90;;;;;;5026130;28;20124;-80
2022/05/08 03:18:49;;;;;;;17.90;6.00;;;5.00;99.90;;;;;;5028750;28;20032;-80
2022/05/08 03:21:15;;;;;;;16.55;5.75;;;4.90;99.90;;;;;;5028925;28;20041;-80
2022/05/08 03:23:42;;;;;;;18.15;6.28;;;4.90;99.90;;;;;;5023513;28;20036;-80
2022/05/08 03:26:08;;;;;;;16.90;6.63;;;4.90;99.90;;;;;;5027618;28;20036;-80
2022/05/08 03:28:35;;;;;;;18.75;6.43;;;4.90;99.90;;;;;;5025462;28;20043;-80
2022/05/08 03:31:02;;;;;;;17.25;6.35;;;4.90;99.90;;;;;;5025616;28;20026;-80
2022/05/08 03:33:28;;;;;;;14.35;6.03;;;4.80;99.90;;;;;;5011927;28;20041;-80
2022/05/08 03:35:55;;;;;;;15.88;5.80;;;4.70;99.90;;;;;;5014025;28;20464;-80
2022/05/08 03:38:21;;;;;;;15.30;5.78;;;4.70;99.90;;;;;;5024505;28;20040;-80
2022/05/08 03:40:47;;;;;;;21.00;6.53;;;4.90;99.90;;;;;;5010705;28;20036;-80
2022/05/08 03:43:13;;;;;;;17.38;5.65;;;4.60;99.90;;;;;;5009631;28;20051;-80
2022/05/08 03:45:39;;;;;;;19.27;5.72;;;4.60;99.90;;;;;;5015036;28;20037;-80
2022/05/08 03:48:05;;;;;;;16.20;5.88;;;4.60;99.90;;;;;;4996242;28;20037;-80
2022/05/08 03:50:31;;;;;;;15.88;5.57;;;4.60;99.90;;;;;;5009050;28;20043;-80
2022/05/08 03:52:58;;;;;;;17.75;6.05;;;4.50;99.90;;;;;;5011545;28;20124;-80
2022/05/08 03:55:24;;;;;;;21.50;6.28;;;4.50;99.90;;;;;;5011098;28;20052;-80
2022/05/08 03:57:50;;;;;;;17.00;6.82;;;4.50;99.90;;;;;;5026033;28;20071;-80
2022/05/08 04:00:17;;;;;;;39.65;9.52;;;4.50;99.90;;;;;;5045349;28;20059;-80
2022/05/08 04:02:43;;;;;;;22.65;6.18;;;4.50;99.90;;;;;;5020733;28;20043;-80
2022/05/08 04:05:10;;;;;;;25.02;8.25;;;4.90;99.90;;;;;;5028462;28;20441;-80
2022/05/08 04:07:37;;;;;;;12.88;5.63;;;4.50;99.90;;;;;;5023490;28;20086;-80
2022/05/08 04:10:03;;;;;;;19.20;6.30;;;4.60;99.90;;;;;;5025655;28;20123;-80
2022/05/08 04:12:29;;;;;;;25.25;7.38;;;4.60;99.90;;;;;;5010438;28;20311;-80
2022/05/08 04:14:55;;;;;;;26.33;8.25;;;4.60;99.90;;;;;;5016347;28;20116;-80
2022/05/08 04:17:20;;;;;;;21.50;6.88;;;4.70;99.90;;;;;;5022544;28;20079;-80
2022/05/08 04:19:46;;;;;;;22.48;6.43;;;4.80;99.90;;;;;;5026815;28;20053;-80
2022/05/08 04:24:57;;;;;;;15.95;6.72;;;4.70;99.90;;;;;;5026675;28;20518;-80
2022/05/08 04:27:23;;;;;;;18.88;6.68;;;4.80;99.90;;;;;;4991825;28;20045;-80
2022/05/08 04:29:49;;;;;;;16.33;6.53;;;4.80;99.90;;;;;;4995245;28;20525;-80
2022/05/08 04:32:15;;;;;;;18.25;6.70;;;4.90;99.90;;;;;;5024057;28;20159;-80
2022/05/08 04:34:41;;;;;;;22.92;8.02;;;4.90;99.90;;;;;;5026791;28;20111;-80
2022/05/08 04:37:07;;;;;;;24.02;6.93;;;4.90;99.90;;;;;;5026449;28;20505;-80
2022/05/08 04:39:33;;;;;;;21.60;7.35;;;5.00;99.90;;;;;;4988451;28;20521;-81
2022/05/08 04:41:59;;;;;;;22.92;7.28;;;5.30;99.90;;;;;;5013585;28;20045;-80
2022/05/08 04:44:25;;;;;;;22.20;7.20;;;5.10;99.90;;;;;;5028701;28;20088;-80
2022/05/08 04:46:51;;;;;;;20.75;7.00;;;5.20;99.90;;;;;;5027690;28;20032;-80
2022/05/08 04:49:16;;;;;;;17.88;7.25;;;5.20;99.90;;;;;;5028606;28;20037;-80
2022/05/08 04:51:42;;;;;;;27.48;7.40;;;5.20;99.90;;;;;;5045555;28;20040;-80
2022/05/08 04:54:08;;;;;;;21.00;7.57;;;5.30;99.90;;;;;;5004367;28;20053;-80
2022/05/08 04:56:34;;;;;;;24.42;7.30;;;5.30;99.90;;;;;;5010910;28;20674;-80
2022/05/08 04:59:00;;;;;;;26.17;7.53;;;5.40;99.90;;;;;;4993575;28;20045;-80
2022/05/08 05:01:26;;;;;;;23.40;7.25;;;5.60;99.90;;;;;;5027286;28;20079;-80
2022/05/08 05:03:52;;;;;;;15.70;8.07;;;5.80;99.90;;;;;;5025130;28;20096;-80
2022/05/08 05:06:17;;;;;;;16.67;7.05;;;5.50;99.90;;;;;;5013227;28;20045;-80
2022/05/08 05:08:43;;;;;;;18.95;7.13;;;5.60;99.90;;;;;;5025692;28;20116;-80
2022/05/08 05:11:10;;;;;;;18.63;7.45;;;5.70;99.90;;;;;;5028269;28;20087;-80
2022/05/08 05:13:36;;;;;;;27.27;8.32;;;5.80;99.90;;;;;;5045194;28;20119;-80
2022/05/08 05:16:03;;;;;;;18.77;6.60;;;5.70;99.90;;;;;;5022832;28;20659;-81
2022/05/08 05:18:29;;;;;;;14.15;6.25;;;5.80;99.90;;;;;;5028070;28;20037;-81
2022/05/08 05:20:55;;;;;;;17.42;6.32;;;6.00;99.90;;;;;;5027568;28;20084;-80
2022/05/08 05:23:20;;;;;;;17.08;6.95;;;6.00;99.90;;;;;;5012160;28;20099;-80
2022/05/08 05:25:46;;;;;;;20.40;6.68;;;6.00;99.90;;;;;;5011892;28;20663;-80
2022/05/08 05:28:12;;;;;;;22.20;7.70;;;6.00;99.90;;;;;;5030488;28;20038;-81
2022/05/08 05:30:37;;;;;;;16.27;6.32;;;6.10;99.90;;;;;;5018493;28;20029;-80
2022/05/08 05:33:03;;;;;;;21.90;7.07;;;6.30;99.90;;;;;;5031579;28;20069;-80
2022/05/08 05:35:29;;;;;;;26.33;7.45;;;6.50;99.90;;;;;;5030050;28;20086;-80
2022/05/08 05:37:55;;;;;;;21.83;7.40;;;6.40;99.90;;;;;;5043530;28;20049;-81
2022/05/08 05:40:20;;;;;;;17.70;6.22;;;6.50;99.90;;;;;;5027924;28;20041;-80
2022/05/08 05:42:47;;;;;;;16.60;5.63;;;6.60;99.90;;;;;;5027415;28;20049;-80
2022/05/08 05:45:13;;;;;;;17.00;5.75;;;6.70;99.90;;;;;;5011878;28;20691;-80
2022/05/08 05:47:52;;;;;;;17.90;5.68;;;6.90;99.90;;;;;;5013812;28;20117;-80
2022/05/08 05:50:20;;;;;;;12.98;4.72;;;6.90;99.90;;;;;;5011840;28;20029;-80
2022/05/08 05:52:46;;;;;;;16.83;5.22;;;7.00;99.90;;;;;;4996464;28;20037;-81
2022/05/08 05:55:11;;;;;;;22.02;5.10;;;7.10;99.90;;;;;;5027536;28;20084;-81
2022/05/08 05:57:38;;;;;;;14.70;5.43;;;7.20;99.90;;;;;;5009506;28;20065;-81
2022/05/08 06:00:06;;;;;;;16.27;5.05;;;7.40;99.90;;;;;;5030526;28;20040;-81
2022/05/08 06:02:33;;;;;;;15.32;4.95;;;7.40;99.90;;;;;;5022595;28;20057;-81
2022/05/08 06:04:59;;;;;;;17.00;5.35;;;7.40;99.90;;;;;;5023982;28;20094;-81
2022/05/08 06:07:25;;;;;;;12.60;4.80;;;7.70;99.90;;;;;;5029316;28;20069;-81
2022/05/08 06:09:50;;;;;;;17.73;5.78;;;7.60;99.90;;;;;;4995075;28;20036;-81
2022/05/08 06:12:16;;;;;;;18.50;5.32;;;7.80;99.90;;;;;;5021350;28;20033;-81
2022/05/08 06:14:42;;;;;;;9.15;4.63;;;7.70;99.90;;;;;;5027421;28;20491;-81
2022/05/08 06:17:07;;;;;;;15.60;4.63;;;7.80;99.90;;;;;;5013187;28;20550;-81
2022/05/08 06:19:33;;;;;;;10.65;4.53;;;7.90;99.90;;;;;;5012315;28;20095;-81
2022/05/08 06:21:59;;;;;;;11.70;5.10;;;8.00;99.90;;;;;;5022234;28;20037;-81
2022/05/08 06:24:25;;;;;;;11.35;4.50;;;8.10;99.90;;;;;;5011268;28;20041;-80
2022/05/08 06:26:51;;;;;;;10.00;3.88;;;8.20;99.90;;;;;;4992409;28;20070;-80
2022/05/08 06:29:17;;;;;;;13.52;4.93;;;8.40;99.90;;;;;;5008941;28;20036;-80
2022/05/08 06:31:43;;;;;;;11.25;3.75;;;8.50;99.90;;;;;;5011807;28;20479;-81
2022/05/08 06:34:08;;;;;;;13.30;4.63;;;8.60;99.90;;;;;;5024045;28;20036;-80
2022/05/08 06:36:34;;;;;;;12.35;4.38;;;8.80;99.90;;;;;;5028325;28;20132;-80
2022/05/08 06:39:00;;;;;;;16.67;3.58;;;8.90;99.90;;;;;;5010583;28;20041;-80
2022/05/08 06:41:27;;;;;;;14.07;4.43;;;9.00;99.90;;;;;;5009473;28;20045;-81
2022/05/08 06:43:53;;;;;;;10.15;4.13;;;9.10;99.90;;;;;;5000949;28;20041;-80
2022/05/08 06:46:19;;;;;;;13.85;3.53;;;9.30;99.90;;;;;;4996988;28;20041;-80
2022/05/08 06:48:47;;;;;;;10.55;3.45;;;9.40;99.90;;;;;;5036763;28;20081;-81
2022/05/08 06:51:13;;;;;;;9.85;2.72;;;9.50;99.90;;;;;;5034837;28;20029;-81
2022/05/08 06:53:39;;;;;;;6.55;2.30;;;10.20;99.90;;;;;;5029113;28;20056;-80
2022/05/08 06:56:05;;;;;;;10.15;2.75;;;9.70;99.90;;;;;;5013019;28;20037;-80
2022/05/08 07:01:34;;;;;;;11.27;3.10;;;9.80;99.90;;;;;;5009442;28;20037;-80
2022/05/08 07:01:34;;;;;;;9.45;3.25;;;9.80;99.90;;;;;;5018639;28;20095;-81
2022/05/08 07:04:00;;;;;;;11.10;3.00;;;9.80;99.90;;;;;;5014464;28;20144;-80
2022/05/08 07:06:26;;;;;;;10.35;2.95;;;10.00;99.90;;;;;;5009801;28;20491;-80
2022/05/08 07:08:52;;;;;;;8.55;2.75;;;10.00;99.90;;;;;;5035482;28;20048;-80
2022/05/08 07:11:17;;;;;;;13.57;2.90;;;10.10;99.90;;;;;;5027223;28;20112;-80
2022/05/08 07:13:43;;;;;;;7.30;2.60;;;10.10;99.90;;;;;;5006447;28;20086;-81
2022/05/08 07:16:09;;;;;;;7.35;2.55;;;10.10;99.90;;;;;;5025627;28;20626;-81
2022/05/08 07:18:35;;;;;;;7.55;2.90;;;10.20;99.90;;;;;;4993972;28;20124;-81
2022/05/08 07:21:00;;;;;;;10.93;3.97;;;10.30;99.90;;;;;;5007057;28;20482;-80
2022/05/08 07:23:26;;;;;;;10.38;2.42;;;10.60;99.90;;;;;;5020158;28;20108;-80
2022/05/08 07:25:52;;;;;;;13.98;3.50;;;10.50;99.90;;;;;;5046833;28;20041;-81
2022/05/08 07:28:17;;;;;;;9.95;3.28;;;10.90;99.90;;;;;;5054088;28;20036;-81
2022/05/08 07:30:43;;;;;;;10.85;2.80;;;11.20;99.90;;;;;;5019205;28;20162;-81
2022/05/08 07:33:09;;;;;;;12.38;2.80;;;11.50;99.90;;;;;;5011353;28;20034;-81
2022/05/08 07:38:21;;;;;;;8.90;3.45;;;11.60;99.90;;;;;;5026618;28;20048;-81
2022/05/08 07:40:48;;;;;;;8.32;2.45;;;11.60;99.90;;;;;;5009242;28;20565;-81
2022/05/08 07:43:17;;;;;;;12.25;3.03;;;11.90;99.90;;;;;;5008412;28;20088;-81
2022/05/08 07:45:43;;;;;;;6.65;2.80;;;12.00;99.90;;;;;;5023613;28;20048;-81
2022/05/08 07:48:09;;;;;;;10.50;2.50;;;12.20;99.90;;;;;;5006585;28;20033;-80
2022/05/08 07:50:35;;;;;;;7.22;2.40;;;12.40;99.90;;;;;;5015405;28;20033;-80
2022/05/08 07:53:01;;;;;;;8.57;2.65;;;12.60;99.90;;;;;;5013864;28;20049;-81
2022/05/08 07:55:26;;;;;;;11.02;2.85;;;12.70;99.90;;;;;;5006370;28;20037;-80
2022/05/08 07:57:52;;;;;;;7.45;2.75;;;12.60;99.80;;;;;;4998372;28;20041;-80
2022/05/08 08:00:18;;;;;;;6.63;2.67;;;12.40;99.30;;;;;;5020507;28;20406;-79
2022/05/08 08:02:43;;;;;;;8.05;2.80;;;12.30;99.90;;;;;;5028087;28;20041;-81
2022/05/08 08:05:22;;;;;;;10.10;3.67;;;12.20;99.60;;;;;;5011017;28;20045;-80
2022/05/08 08:07:49;;;;;;;10.45;3.13;;;12.10;99.90;;;;;;4997780;28;20048;-82
2022/05/08 08:10:15;;;;;;;7.60;2.65;;;12.30;99.90;;;;;;5002769;28;20044;-79
2022/05/08 08:12:41;;;;;;;8.40;2.88;;;12.50;99.90;;;;;;5027214;28;20100;-80
2022/05/08 08:15:07;;;;;;;7.45;2.47;;;12.70;99.70;;;;;;5022515;28;20087;-80
2022/05/08 08:17:33;;;;;;;9.50;2.65;;;13.00;99.70;;;;;;5006134;28;20193;-80
2022/05/08 08:19:58;;;;;;;7.78;2.75;;;13.20;99.70;;;;;;4989451;28;20487;-80
2022/05/08 08:22:24;;;;;;;8.18;2.58;;;13.30;99.10;;;;;;5009918;28;20127;-81
2022/05/08 08:24:50;;;;;;;8.40;2.85;;;13.50;98.70;;;;;;5016242;28;20045;-81
2022/05/08 08:27:16;;;;;;;15.43;2.83;;;13.60;98.40;;;;;;5022673;28;20033;-81
2022/05/08 08:29:42;;;;;;;6.05;2.50;;;13.80;98.20;;;;;;5011388;28;20513;-81
2022/05/08 08:32:08;;;;;;;12.32;2.83;;;13.90;97.80;;;;;;5013916;28;20056;-82
2022/05/08 08:34:34;;;;;;;7.20;2.47;;;14.10;97.70;;;;;;5026035;28;20033;-79
2022/05/08 08:37:00;;;;;;;8.88;2.92;;;14.30;97.70;;;;;;5018602;28;20045;-80
2022/05/08 08:39:25;;;;;;;13.25;2.78;;;14.50;97.40;;;;;;5034280;28;20057;-79
2022/05/08 08:42:29;;;;;;;6.45;2.38;;;14.30;96.60;;;;;;5016109;28;20041;-79
2022/05/08 08:47:52;;;;;;;;;;;14.10;96.30;;;;;;5045231;28;20034;-80
2022/05/08 08:50:19;;;;;;;9.10;2.85;;;13.90;96.00;;;;;;5015448;28;19964;-80
2022/05/08 08:52:46;;;;;;;10.35;3.78;;;13.60;97.20;;;;;;5007269;28;20115;-79
2022/05/08 08:55:14;;;;;;;8.85;2.70;;;13.40;97.10;;;;;;5032707;28;20079;-79
2022/05/08 08:57:39;;;;;;;10.52;3.00;;;13.40;97.20;;;;;;5014082;28;20036;-79
2022/05/08 09:00:07;;;;;;;10.00;2.72;;;13.60;97.90;;;;;;5021614;28;20049;-79
2022/05/08 09:02:34;;;;;;;11.32;2.95;;;13.70;97.50;;;;;;5019099;28;20052;-79
2022/05/08 09:05:08;;;;;;;10.18;3.00;;;13.50;97.00;;;;;;5006995;28;20041;-79
2022/05/08 09:07:34;;;;;;;9.18;3.28;;;13.30;97.10;;;;;;5015774;28;20045;-79
2022/05/08 09:10:07;;;;;;;12.27;3.20;;;13.10;97.00;;;;;;5034308;28;20529;-79
2022/05/08 09:12:34;;;;;;;8.23;2.67;;;13.20;97.20;;;;;;5028186;28;20083;-79
2022/05/08 09:15:00;;;;;;;12.05;3.25;;;13.40;96.80;;;;;;5000944;28;20052;-79
2022/05/08 09:17:43;;;;;;;7.88;2.78;;;13.60;97.20;;;;;;5020899;28;20041;-79
2022/05/08 09:20:29;;;;;;;11.85;3.35;;;13.70;96.60;;;;;;5032761;28;20115;-79
2022/05/08 09:23:04;;;;;;;10.82;3.40;;;14.00;96.40;;;;;;5002940;28;20486;-79
2022/05/08 09:26:02;;;;;;;9.55;2.75;;;14.20;96.00;;;;;;5033040;28;20494;-79
2022/05/08 09:28:32;;;;;;;8.88;2.85;;;14.30;95.40;;;;;;5032700;28;20075;-79
2022/05/08 09:31:06;;;;;;;12.05;3.15;;;14.50;95.30;;;;;;5019895;28;20034;-79
2022/05/08 09:33:36;;;;;;;7.22;2.67;;;14.70;95.00;;;;;;5019055;28;20512;-79
2022/05/08 09:36:11;;;;;;;6.43;2.60;;;14.90;94.30;;;;;;5017492;28;20068;-79
2022/05/08 09:38:48;;;;;;;10.05;2.83;;;14.80;93.40;;;;;;5013894;28;20037;-79
2022/05/08 09:41:28;;;;;;;10.13;3.15;;;14.90;94.20;;;;;;5032632;28;20491;-79
2022/05/08 09:44:08;;;;;;;11.75;2.63;;;15.20;92.80;;;;;;5030119;28;20577;-79
2022/05/08 09:46:45;;;;;;;11.88;3.38;;;15.20;93.90;;;;;;5012603;28;20045;-79
2022/05/08 09:49:13;;;;;;;12.52;2.88;;;15.40;93.20;;;;;;5033084;28;20045;-79
2022/05/08 09:51:41;;;;;;;9.23;3.10;;;15.50;93.60;;;;;;5018172;28;20507;-80
2022/05/08 09:54:08;;;;;;;5.97;2.30;;;15.60;93.10;;;;;;5000076;28;20034;-79
2022/05/08 09:56:35;;;;;;;10.07;3.08;;;15.60;93.00;;;;;;5011398;28;20045;-79
2022/05/08 09:59:01;;;;;;;8.10;3.20;;;15.60;91.90;;;;;;5014645;28;20125;-79
2022/05/08 10:01:27;;;;;;;12.77;3.20;;;15.60;92.10;;;;;;5023246;28;20478;-79
2022/05/08 10:03:55;;;;;;;10.93;2.58;;;15.70;92.20;;;;;;5032541;28;20052;-79
2022/05/08 10:06:21;;;;;;;10.52;2.47;;;15.90;91.90;;;;;;5009158;28;20046;-79
2022/05/08 10:08:48;;;;;;;7.25;2.65;;;16.10;91.80;;;;;;4993792;28;20095;-79
2022/05/08 10:14:03;;;;;;;8.95;2.72;;;16.30;90.10;;;;;;5032182;28;20084;-80
2022/05/08 10:16:45;;;;;;;12.13;2.80;;;16.20;89.30;;;;;;5016737;28;20064;-79
2022/05/08 10:19:19;;;;;;;8.77;2.80;;;16.40;88.90;;;;;;5012621;28;20068;-79
2022/05/08 10:21:57;;;;;;;5.18;2.42;;;16.50;89.00;;;;;;5022827;28;20383;-79
2022/05/08 10:24:53;;;;;;;7.25;2.63;;;16.70;87.50;;;;;;5030958;28;20713;-79
2022/05/08 10:27:33;;;;;;;8.00;2.85;;;16.60;83.90;;;;;;5025645;28;20103;-79
2022/05/08 10:29:59;;;;;;;7.30;2.55;;;16.70;86.50;;;;;;5023639;28;20044;-80
2022/05/08 10:32:33;;;;;;;7.53;2.92;;;16.80;86.80;;;;;;5019709;28;20034;-79
2022/05/08 10:35:21;;;;;;;9.82;2.60;;;16.90;85.50;;;;;;5015492;28;20053;-79
2022/05/08 10:37:57;;;;;;;8.25;2.90;;;17.10;86.90;;;;;;5015056;28;20053;-79
2022/05/08 10:40:22;;;;;;;6.82;2.45;;;17.20;83.40;;;;;;5028444;28;20072;-80
2022/05/08 10:42:56;;;;;;;9.75;2.60;;;17.30;84.40;;;;;;5031302;28;20044;-80
2022/05/08 10:45:31;;;;;;;7.30;2.30;;;17.30;84.70;;;;;;5031623;28;20072;-79
2022/05/08 10:48:18;;;;;;;8.73;2.70;;;17.40;81.30;;;;;;5020464;28;20041;-79
2022/05/08 10:50:59;;;;;;;8.05;2.38;;;17.40;78.90;;;;;;5024027;28;20041;-79
2022/05/08 10:53:33;;;;;;;4.38;2.28;;;17.40;77.20;;;;;;5016212;28;20045;-80
2022/05/08 10:56:01;;;;;;;13.77;3.10;;;17.40;76.60;;;;;;5011475;28;20041;-80
2022/05/08 10:58:27;;;;;;;19.83;3.13;;;17.40;78.30;;;;;;5017898;28;20049;-80
2022/05/08 11:00:57;;;;;;;14.15;3.03;;;17.50;78.90;;;;;;5010161;28;20070;-80
2022/05/08 11:03:25;;;;;;;9.43;3.10;;;17.60;78.40;;;;;;4996820;28;20041;-80
2022/05/08 11:05:52;;;;;;;7.72;2.63;;;17.60;79.20;;;;;;5002202;28;20086;-79
2022/05/08 11:08:28;;;;;;;9.27;2.80;;;17.60;79.40;;;;;;5016441;28;20048;-79
2022/05/08 11:11:12;;;;;;;7.93;2.30;;;17.60;79.20;;;;;;5009221;28;20029;-80
2022/05/08 11:13:41;;;;;;;5.72;2.50;;;17.50;75.40;;;;;;5006643;28;20083;-79
2022/05/08 11:16:06;;;;;;;10.82;2.80;;;17.50;76.90;;;;;;5003326;28;20036;-80
2022/05/08 11:18:32;;;;;;;8.10;2.42;;;17.60;75.00;;;;;;5011192;28;20032;-79
2022/05/08 11:21:00;;;;;;;5.95;2.75;;;17.50;75.90;;;;;;5006177;28;20044;-79
2022/05/08 11:23:34;;;;;;;6.60;2.17;;;17.70;76.70;;;;;;5012562;28;20034;-79
2022/05/08 11:26:08;;;;;;;12.82;2.88;;;17.80;75.80;;;;;;5024418;28;20048;-80
2022/05/08 11:28:36;;;;;;;8.52;2.70;;;17.70;76.00;;;;;;5031244;28;20029;-79
2022/05/08 11:31:14;;;;;;;11.68;2.60;;;17.80;78.60;;;;;;5005539;28;20040;-79
2022/05/08 11:36:26;;;;;;;6.95;2.30;;;17.90;77.40;;;;;;5027896;28;20402;-80
2022/05/08 11:38:55;;;;;;;11.13;2.58;;;18.00;76.90;;;;;;5016860;28;20041;-80
2022/05/08 11:41:36;;;;;;;8.65;2.65;;;18.10;76.90;;;;;;5011144;28;20041;-80
2022/05/08 11:44:14;;;;;;;12.25;2.50;;;18.00;76.10;;;;;;5023348;28;20059;-79
2022/05/08 11:47:00;;;;;;;10.00;2.72;;;18.10;78.10;;;;;;5030639;28;20065;-79
2022/05/08 11:49:31;;;;;;;6.88;2.80;;;18.20;75.50;;;;;;5012303;28;20041;-78
2022/05/08 11:51:59;;;;;;;7.47;2.72;;;18.30;74.90;;;;;;5010509;28;20072;-80
2022/05/08 11:54:35;;;;;;;10.35;2.72;;;18.20;74.80;;;;;;5013363;28;20384;-80
2022/05/08 11:57:27;;;;;;;7.00;2.97;;;18.30;73.30;;;;;;5029870;28;20100;-80
2022/05/08 12:00:09;;;;;;;9.30;2.70;;;18.30;72.60;;;;;;4997230;28;20041;-80
2022/05/08 12:02:40;;;;;;;6.28;2.38;;;18.30;72.00;;;;;;5034906;28;20052;-77
2022/05/08 12:05:07;;;;;;;4.25;2.40;;;18.30;73.20;;;;;;4998770;28;20075;-78
2022/05/08 12:07:41;;;;;;;9.07;2.53;;;18.40;72.70;;;;;;5046038;28;20069;-80
2022/05/08 12:10:07;;;;;;;9.73;2.50;;;18.30;72.70;;;;;;5015760;28;20409;-78
2022/05/08 12:12:35;;;;;;;10.75;2.60;;;18.40;72.10;;;;;;5033715;28;20041;-79
2022/05/08 12:15:18;;;;;;;11.48;2.63;;;18.50;71.90;;;;;;5007448;28;20036;-79
2022/05/08 12:17:43;;;;;;;8.00;2.72;;;18.40;72.00;;;;;;5030243;28;20504;-79
2022/05/08 12:20:18;;;;;;;10.27;2.90;;;18.50;70.60;;;;;;5035648;28;20041;-79
2022/05/08 12:22:45;;;;;;;9.27;2.60;;;18.50;71.50;;;;;;5030685;28;20044;-79
2022/05/08 12:25:14;;;;;;;11.25;2.53;;;18.50;71.20;;;;;;5004719;28;20166;-79
2022/05/08 12:27:42;;;;;;;5.30;2.67;;;18.50;69.30;;;;;;5032754;28;20033;-79
2022/05/08 12:30:09;;;;;;;11.90;2.65;;;18.60;69.50;;;;;;5035376;28;20405;-79
2022/05/08 12:32:36;;;;;;;11.38;3.10;;;18.70;69.10;;;;;;5020649;28;20037;-79
2022/05/08 12:35:03;;;;;;;8.05;2.88;;;18.60;71.50;;;;;;5033224;28;20092;-79
2022/05/08 12:37:29;;;;;;;7.85;2.70;;;18.80;71.50;;;;;;5049525;28;20502;-79
2022/05/08 12:39:55;;;;;;;5.60;2.38;;;18.90;70.40;;;;;;5020876;28;20131;-79
2022/05/08 12:42:21;;;;;;;5.47;2.78;;;19.00;70.90;;;;;;5031982;28;20037;-79
2022/05/08 12:44:47;;;;;;;9.75;2.53;;;19.10;70.20;;;;;;5001640;28;20054;-79
2022/05/08 12:47:13;;;;;;;9.13;2.55;;;19.10;70.30;;;;;;4992821;28;20034;-79
2022/05/08 12:49:41;;;;;;;8.10;2.75;;;19.20;70.10;;;;;;4990346;28;20037;-79
2022/05/08 12:52:09;;;;;;;6.85;2.60;;;19.20;71.40;;;;;;5011048;28;20044;-82
2022/05/08 12:54:35;;;;;;;5.50;2.60;;;19.10;69.90;;;;;;5011374;28;20120;-82
2022/05/08 12:57:03;;;;;;;8.15;3.00;;;19.10;69.60;;;;;;4988053;28;20141;-81
2022/05/08 12:59:46;;;;;;;11.68;2.95;;;19.10;70.40;;;;;;5014848;28;20045;-82
2022/05/08 13:02:18;;;;;;;12.38;3.10;;;18.90;70.00;;;;;;4989827;28;20074;-83
2022/05/08 13:04:46;;;;;;;8.80;2.88;;;18.70;70.50;;;;;;5007265;28;20025;-80
2022/05/08 13:07:13;;;;;;;7.75;3.40;;;18.90;70.70;;;;;;5004824;28;20056;-81
2022/05/08 13:09:39;;;;;;;8.82;3.30;;;19.00;70.20;;;;;;5002342;28;20127;-80